Time;durP1;ratioP1;P1;durP2;ratioP2;P2;SDS_P1;SDS_P2;PMS_P1;PMS_P2;Temp;Humidity;BMP_temperature;BMP_pressure;BME280_temperature;BME280_humidity;BME280_pressure;Samples;Min_cycle;Max_cycle;Signal;HPM_P1;HPM_P2
2023/01/02 00:00:25;;;;;;;18.37;5.77;;;10.80;99.90;;;;;;5041138;28;20032;-76
2023/01/02 00:02:51;;;;;;;12.65;5.57;;;10.80;99.90;;;;;;5045462;28;20029;-75
2023/01/02 00:05:17;;;;;;;16.47;6.30;;;10.80;99.90;;;;;;5046575;28;20044;-76
2023/01/02 00:07:42;;;;;;;21.57;6.40;;;10.80;99.90;;;;;;5047901;28;20064;-75
2023/01/02 00:10:08;;;;;;;15.37;6.47;;;10.90;99.90;;;;;;5051652;28;20466;-76
2023/01/02 00:12:34;;;;;;;10.80;5.43;;;10.90;99.90;;;;;;5046811;28;20034;-76
2023/01/02 00:14:59;;;;;;;10.27;5.87;;;10.90;99.90;;;;;;5043719;28;20029;-76
2023/01/02 00:17:25;;;;;;;15.63;6.23;;;10.90;99.90;;;;;;5057441;28;20037;-76
2023/01/02 00:19:51;;;;;;;19.20;5.87;;;10.90;99.90;;;;;;5041397;28;20037;-76
2023/01/02 00:22:16;;;;;;;13.47;5.87;;;10.90;99.90;;;;;;5044217;28;20036;-77
2023/01/02 00:24:42;;;;;;;10.17;5.37;;;10.90;99.90;;;;;;5044211;28;20029;-76
2023/01/02 00:27:08;;;;;;;13.37;6.97;;;10.90;99.90;;;;;;5044588;28;20033;-77
2023/01/02 00:29:33;;;;;;;12.77;5.73;;;10.90;99.90;;;;;;5042453;28;20029;-77
2023/01/02 00:31:59;;;;;;;13.27;5.53;;;10.90;99.90;;;;;;5046551;28;20038;-76
2023/01/02 00:34:25;;;;;;;13.10;5.07;;;10.90;99.90;;;;;;5047867;28;20087;-76
2023/01/02 00:36:51;;;;;;;12.53;5.67;;;10.90;99.90;;;;;;5046737;28;20083;-76
2023/01/02 00:39:16;;;;;;;14.63;5.70;;;10.90;99.90;;;;;;5048814;28;20037;-77
2023/01/02 00:41:42;;;;;;;14.20;5.90;;;10.90;99.90;;;;;;5035953;28;20033;-76
2023/01/02 00:44:08;;;;;;;13.33;5.53;;;10.90;99.90;;;;;;5040259;28;20036;-76
2023/01/02 00:46:33;;;;;;;11.67;5.07;;;10.90;99.90;;;;;;5048344;28;20411;-76
2023/01/02 00:48:59;;;;;;;11.17;5.53;;;10.90;99.90;;;;;;5035275;28;20032;-76
2023/01/02 00:51:25;;;;;;;9.90;5.63;;;10.90;99.90;;;;;;5039158;28;20098;-76
2023/01/02 00:53:50;;;;;;;15.03;6.17;;;10.90;99.90;;;;;;5036063;28;20040;-76
2023/01/02 00:56:17;;;;;;;15.97;6.10;;;10.90;99.90;;;;;;5053568;28;20032;-77
2023/01/02 00:58:42;;;;;;;12.15;5.60;;;10.90;99.90;;;;;;5041049;28;20030;-76
2023/01/02 01:01:08;;;;;;;13.83;5.50;;;10.90;99.90;;;;;;5040718;28;20082;-76
2023/01/02 01:03:34;;;;;;;14.57;5.50;;;10.90;99.90;;;;;;5047378;28;20036;-76
2023/01/02 01:06:06;;;;;;;20.17;6.23;;;10.90;99.90;;;;;;5040299;28;20147;-76
2023/01/02 01:08:34;;;;;;;11.38;6.07;;;10.90;99.90;;;;;;5045400;28;20021;-76
2023/01/02 01:11:08;;;;;;;17.60;5.60;;;10.90;99.90;;;;;;5041481;28;20024;-76
2023/01/02 01:13:34;;;;;;;11.98;5.50;;;10.90;99.90;;;;;;5045232;28;20025;-76
2023/01/02 01:16:17;;;;;;;14.17;5.70;;;10.90;99.90;;;;;;5042898;28;20035;-76
2023/01/02 01:18:43;;;;;;;14.98;5.68;;;10.90;99.90;;;;;;5045673;28;20025;-83
2023/01/02 01:21:15;;;;;;;13.13;5.53;;;10.90;99.90;;;;;;5047010;28;20714;-76
2023/01/02 01:23:41;;;;;;;11.35;5.65;;;10.90;99.90;;;;;;5042463;28;20546;-76
2023/01/02 01:26:10;;;;;;;14.17;5.00;;;10.90;99.90;;;;;;5050156;28;20044;-77
2023/01/02 01:28:36;;;;;;;13.70;5.15;;;10.90;99.90;;;;;;5043633;28;20072;-75
2023/01/02 01:31:07;;;;;;;13.43;6.15;;;10.90;99.90;;;;;;5036898;28;20022;-76
2023/01/02 01:33:33;;;;;;;15.07;5.60;;;10.90;99.90;;;;;;5051903;28;20105;-76
2023/01/02 01:36:04;;;;;;;11.65;5.57;;;10.90;99.90;;;;;;5044439;28;20445;-76
2023/01/02 01:38:31;;;;;;;14.25;5.63;;;10.90;99.90;;;;;;5042576;28;20056;-76
2023/01/02 01:40:56;;;;;;;;;;;10.90;99.90;;;;;;5048966;28;20047;-76
2023/01/02 01:43:40;;;;;;;12.13;4.87;;;10.90;99.90;;;;;;5048174;28;20320;-76
2023/01/02 01:46:18;;;;;;;15.57;5.93;;;10.90;99.90;;;;;;5045921;28;20087;-76
2023/01/02 01:48:46;;;;;;;13.45;5.25;;;10.90;99.90;;;;;;5042396;28;20056;-76
2023/01/02 01:51:13;;;;;;;9.45;4.80;;;10.90;99.90;;;;;;5041276;28;20319;-75
2023/01/02 01:53:39;;;;;;;;;;;10.90;99.90;;;;;;5049364;28;20041;-76
2023/01/02 01:56:07;;;;;;;12.18;4.70;;;10.90;99.90;;;;;;5048071;28;19944;-83
2023/01/02 01:58:38;;;;;;;14.88;5.90;;;11.00;99.90;;;;;;5045611;28;20458;-76
2023/01/02 02:01:04;;;;;;;16.13;6.55;;;11.00;99.90;;;;;;5045290;28;20032;-78
2023/01/02 02:03:33;;;;;;;15.98;5.93;;;11.00;99.90;;;;;;5045587;28;20025;-82
2023/01/02 02:06:00;;;;;;;9.88;5.30;;;10.90;99.90;;;;;;5037526;28;20061;-76
2023/01/02 02:08:48;;;;;;;9.73;5.05;;;10.90;99.90;;;;;;5036243;28;20025;-76
2023/01/02 02:11:14;;;;;;;17.65;5.68;;;10.90;99.90;;;;;;5038519;28;20370;-76
2023/01/02 02:13:40;;;;;;;13.03;6.03;;;10.90;99.90;;;;;;5046220;28;20047;-76
2023/01/02 02:16:15;;;;;;;14.30;6.10;;;10.90;99.90;;;;;;5042358;28;20341;-76
2023/01/02 02:19:02;;;;;;;13.98;6.13;;;10.90;99.90;;;;;;5037483;28;20040;-76
2023/01/02 02:22:00;;;;;;;11.23;5.28;;;10.90;99.90;;;;;;5045940;28;20028;-76
2023/01/02 02:25:01;;;;;;;13.20;5.85;;;10.90;99.90;;;;;;5049383;28;20079;-75
2023/01/02 02:28:07;;;;;;;10.93;5.25;;;10.90;99.90;;;;;;5047149;28;20369;-76
2023/01/02 02:30:40;;;;;;;13.63;5.72;;;10.90;99.90;;;;;;5041667;28;20032;-75
2023/01/02 02:33:27;;;;;;;14.13;6.13;;;11.00;99.90;;;;;;5044510;28;20078;-76
2023/01/02 02:36:03;;;;;;;13.50;6.07;;;11.00;99.90;;;;;;5048080;28;20033;-76
2023/01/02 02:38:32;;;;;;;;;;;11.00;99.90;;;;;;5041607;28;20029;-76
2023/01/02 02:41:22;;;;;;;13.63;5.35;;;11.00;99.90;;;;;;5038971;28;19909;-76
2023/01/02 02:43:47;;;;;;;12.50;5.55;;;11.00;99.90;;;;;;5053141;28;20044;-76
2023/01/02 02:46:31;;;;;;;16.97;6.60;;;11.00;99.90;;;;;;5051354;28;20026;-76
2023/01/02 02:49:09;;;;;;;14.85;6.97;;;11.00;99.90;;;;;;5044965;28;20076;-77
2023/01/02 02:51:51;;;;;;;18.35;6.93;;;11.00;99.90;;;;;;5049519;28;20468;-79
2023/01/02 02:54:22;;;;;;;14.43;6.18;;;11.10;99.90;;;;;;5050522;28;20378;-75
2023/01/02 02:56:50;;;;;;;15.68;6.30;;;11.00;99.90;;;;;;5050569;28;20033;-76
2023/01/02 02:59:18;;;;;;;14.98;5.55;;;11.10;99.90;;;;;;5048440;28;20441;-76
2023/01/02 03:01:43;;;;;;;18.50;7.22;;;11.10;99.90;;;;;;5044377;28;20064;-76
2023/01/02 03:04:20;;;;;;;11.83;6.70;;;11.10;99.90;;;;;;5046990;28;20057;-76
2023/01/02 03:07:01;;;;;;;15.98;7.13;;;11.10;99.90;;;;;;5048785;28;20029;-76
2023/01/02 03:09:35;;;;;;;14.10;6.20;;;11.00;99.90;;;;;;5053888;28;20033;-76
2023/01/02 03:12:31;;;;;;;17.15;6.65;;;11.10;99.90;;;;;;5039868;28;20022;-77
2023/01/02 03:15:48;;;;;;;16.90;6.65;;;11.10;99.90;;;;;;5042418;28;20025;-76
2023/01/02 03:18:37;;;;;;;17.70;7.13;;;11.10;99.90;;;;;;5009334;28;20405;-76
2023/01/02 03:21:14;;;;;;;11.88;6.50;;;11.10;99.90;;;;;;4990243;28;20039;-76
2023/01/02 03:23:43;;;;;;;19.58;6.32;;;11.10;99.90;;;;;;5010926;28;20083;-82
2023/01/02 03:26:13;;;;;;;16.60;6.43;;;11.10;99.90;;;;;;5005263;28;20108;-77
2023/01/02 03:28:41;;;;;;;11.45;6.20;;;11.10;99.90;;;;;;5009293;28;20034;-77
2023/01/02 03:31:11;;;;;;;22.13;6.65;;;11.10;99.90;;;;;;5012401;28;20080;-78
2023/01/02 03:33:43;;;;;;;14.48;7.07;;;11.10;99.90;;;;;;5007600;28;20038;-77
2023/01/02 03:36:20;;;;;;;14.52;6.25;;;11.10;99.90;;;;;;5012304;28;20100;-77
2023/01/02 03:39:04;;;;;;;19.77;6.70;;;11.10;99.90;;;;;;4995662;28;20034;-77
2023/01/02 03:41:35;;;;;;;13.10;6.50;;;11.10;99.90;;;;;;4989675;28;20129;-77
2023/01/02 03:44:02;;;;;;;14.32;6.53;;;11.10;99.90;;;;;;5008637;28;20038;-77
2023/01/02 03:46:41;;;;;;;11.75;5.72;;;11.10;99.90;;;;;;5009096;28;20041;-76
2023/01/02 03:49:15;;;;;;;14.73;6.57;;;11.10;99.90;;;;;;4992163;28;20022;-77
2023/01/02 03:51:41;;;;;;;15.23;6.75;;;11.20;99.90;;;;;;5006359;28;20038;-76
2023/01/02 03:54:08;;;;;;;15.37;6.87;;;11.20;99.90;;;;;;5035656;28;20044;-76
2023/01/02 03:56:48;;;;;;;18.08;6.70;;;11.20;99.90;;;;;;5050674;28;20037;-76
2023/01/02 03:59:37;;;;;;;19.38;8.48;;;11.20;99.90;;;;;;5045100;28;20729;-76
2023/01/02 04:02:24;;;;;;;15.05;7.13;;;11.20;99.90;;;;;;5044292;28;20025;-77
2023/01/02 04:05:03;;;;;;;26.25;7.90;;;11.20;99.90;;;;;;5052786;28;20037;-76
2023/01/02 04:07:53;;;;;;;21.77;7.93;;;11.30;99.90;;;;;;5043659;28;20075;-76
2023/01/02 04:10:20;;;;;;;18.23;7.55;;;11.20;99.90;;;;;;5038751;28;20026;-76
2023/01/02 04:12:51;;;;;;;15.13;8.00;;;11.30;99.90;;;;;;5044966;28;20025;-76
2023/01/02 04:15:20;;;;;;;15.05;7.28;;;11.30;99.90;;;;;;5038261;28;20033;-77
2023/01/02 04:17:58;;;;;;;18.38;6.80;;;11.30;99.90;;;;;;5045194;28;20154;-76
2023/01/02 04:20:31;;;;;;;15.95;6.82;;;11.30;99.90;;;;;;5039754;28;20111;-76
2023/01/02 04:23:12;;;;;;;19.67;7.70;;;11.30;99.90;;;;;;5041848;28;20029;-76
2023/01/02 04:25:48;;;;;;;19.23;7.35;;;11.30;99.90;;;;;;5046245;28;20324;-76
2023/01/02 04:28:22;;;;;;;17.27;7.25;;;11.40;99.90;;;;;;5040661;28;20119;-76
2023/01/02 04:30:53;;;;;;;15.18;7.20;;;11.40;99.90;;;;;;5049867;28;20471;-76
2023/01/02 04:33:22;;;;;;;22.50;7.97;;;11.40;99.90;;;;;;5048251;28;20033;-75
2023/01/02 04:35:48;;;;;;;24.40;8.25;;;11.40;99.90;;;;;;5049940;28;20064;-76
2023/01/02 04:38:14;;;;;;;23.73;7.43;;;11.40;99.90;;;;;;5044720;28;20623;-76
2023/01/02 04:40:40;;;;;;;17.27;7.30;;;11.40;99.90;;;;;;5041479;28;20438;-76
2023/01/02 04:43:20;;;;;;;21.73;7.23;;;11.40;99.90;;;;;;5044559;28;20029;-76
2023/01/02 04:45:49;;;;;;;19.13;7.20;;;11.40;99.90;;;;;;5050931;28;20120;-78
2023/01/02 04:48:15;;;;;;;23.83;7.32;;;11.50;99.90;;;;;;5045010;28;20036;-75
2023/01/02 04:50:42;;;;;;;23.15;6.57;;;11.40;99.90;;;;;;5044258;28;20029;-76
2023/01/02 04:53:09;;;;;;;15.88;6.72;;;11.40;99.90;;;;;;5044648;28;20056;-77
2023/01/02 04:55:35;;;;;;;15.93;7.25;;;11.40;99.90;;;;;;5044018;28;20112;-75
2023/01/02 04:58:01;;;;;;;11.00;6.00;;;11.40;99.90;;;;;;5045302;28;20079;-75
2023/01/02 05:00:27;;;;;;;16.67;6.57;;;11.50;99.90;;;;;;5048434;28;20378;-77
2023/01/02 05:02:53;;;;;;;18.90;6.30;;;11.40;99.90;;;;;;5046160;28;20059;-78
2023/01/02 05:05:18;;;;;;;16.27;6.77;;;11.40;99.90;;;;;;5046122;28;20335;-76
2023/01/02 05:07:44;;;;;;;19.43;7.50;;;11.50;99.90;;;;;;5043824;28;20044;-75
2023/01/02 05:10:10;;;;;;;17.37;6.73;;;11.50;99.90;;;;;;5037149;28;20026;-76
2023/01/02 05:12:38;;;;;;;19.13;7.22;;;11.50;99.90;;;;;;5044336;28;20324;-79
2023/01/02 05:15:05;;;;;;;16.80;7.47;;;11.50;99.90;;;;;;5048437;28;20033;-78
2023/01/02 05:17:38;;;;;;;11.98;6.10;;;11.60;99.90;;;;;;5040564;28;20036;-76
2023/01/02 05:20:06;;;;;;;10.82;4.95;;;11.40;99.90;;;;;;5049121;28;20116;-74
2023/01/02 05:25:16;;;;;;;3.88;2.58;;;11.10;99.90;;;;;;5050360;28;20035;-83
2023/01/02 05:27:42;;;;;;;3.37;2.10;;;10.90;99.90;;;;;;5042600;28;20356;-75
2023/01/02 05:30:09;;;;;;;3.07;2.43;;;10.80;99.90;;;;;;5049467;28;20127;-75
2023/01/02 05:32:34;;;;;;;3.80;1.73;;;10.70;99.90;;;;;;5045589;28;20029;-75
2023/01/02 05:35:00;;;;;;;1.67;1.57;;;10.60;99.90;;;;;;5044699;28;20485;-75
2023/01/02 05:37:28;;;;;;;2.10;1.30;;;10.50;99.90;;;;;;5042136;28;20032;-76
2023/01/02 05:39:53;;;;;;;1.73;1.33;;;10.40;99.90;;;;;;5042381;28;20086;-76
2023/01/02 05:42:19;;;;;;;1.10;1.00;;;10.30;99.90;;;;;;5040932;28;20025;-77
2023/01/02 05:44:44;;;;;;;1.63;1.23;;;10.30;99.90;;;;;;5049766;28;20021;-76
2023/01/02 05:47:10;;;;;;;2.07;1.27;;;10.20;99.90;;;;;;5043724;28;20362;-75
2023/01/02 05:49:36;;;;;;;1.13;0.90;;;10.20;99.90;;;;;;5049889;28;20099;-77
2023/01/02 05:52:02;;;;;;;1.20;0.97;;;10.10;99.90;;;;;;5045846;28;20278;-76
2023/01/02 05:54:27;;;;;;;1.70;1.20;;;10.10;99.90;;;;;;5043422;28;20108;-76
2023/01/02 05:56:54;;;;;;;1.73;1.40;;;10.00;99.90;;;;;;5039724;28;20085;-75
2023/01/02 05:59:20;;;;;;;4.03;1.20;;;10.00;99.90;;;;;;5042278;28;20030;-76
2023/01/02 06:01:46;;;;;;;4.57;1.50;;;10.00;99.90;;;;;;5043318;28;20033;-77
2023/01/02 06:04:11;;;;;;;2.77;1.67;;;9.90;99.90;;;;;;5045713;28;20033;-76
2023/01/02 06:06:38;;;;;;;2.37;1.93;;;9.90;99.90;;;;;;5044070;28;20041;-77
2023/01/02 06:09:06;;;;;;;3.05;2.22;;;9.90;99.90;;;;;;5043331;28;20018;-77
2023/01/02 06:11:32;;;;;;;3.80;2.10;;;9.90;99.90;;;;;;5046736;28;20022;-76
2023/01/02 06:13:58;;;;;;;3.47;2.10;;;9.90;99.90;;;;;;5035565;28;20033;-75
2023/01/02 06:16:24;;;;;;;3.47;2.20;;;9.90;99.90;;;;;;5045026;28;20494;-75
2023/01/02 06:18:50;;;;;;;3.03;2.00;;;9.80;99.90;;;;;;5044001;28;20035;-76
2023/01/02 06:21:18;;;;;;;7.55;3.05;;;9.80;99.90;;;;;;5043269;28;20030;-76
2023/01/02 06:23:46;;;;;;;3.80;2.35;;;9.80;99.90;;;;;;5044423;28;20064;-76
2023/01/02 06:26:12;;;;;;;3.42;2.35;;;9.80;99.90;;;;;;5042878;28;20026;-76
2023/01/02 06:28:39;;;;;;;3.47;2.55;;;9.80;99.90;;;;;;5042560;28;20454;-76
2023/01/02 06:31:11;;;;;;;4.18;2.60;;;9.80;99.90;;;;;;5049716;28;20084;-75
2023/01/02 06:33:37;;;;;;;5.88;1.95;;;9.80;99.90;;;;;;5049866;28;20411;-78
2023/01/02 06:36:09;;;;;;;4.83;2.07;;;9.70;99.90;;;;;;5041796;28;20071;-75
2023/01/02 06:38:35;;;;;;;4.10;2.22;;;9.70;99.90;;;;;;5041706;28;20490;-75
2023/01/02 06:41:01;;;;;;;3.08;2.22;;;9.70;99.90;;;;;;5051209;28;20105;-76
2023/01/02 06:43:28;;;;;;;1.92;1.27;;;9.70;99.90;;;;;;5049427;28;20091;-75
2023/01/02 06:45:59;;;;;;;1.60;1.23;;;9.60;99.90;;;;;;5047354;28;20094;-75
2023/01/02 06:48:25;;;;;;;2.20;1.40;;;9.60;99.90;;;;;;5046963;28;20037;-76
2023/01/02 06:50:51;;;;;;;2.00;1.00;;;9.50;99.90;;;;;;5046297;28;20323;-75
2023/01/02 06:53:16;;;;;;;1.73;1.17;;;9.50;99.90;;;;;;5047635;28;20131;-76
2023/01/02 06:55:56;;;;;;;2.00;0.93;;;9.40;99.90;;;;;;5047913;28;20116;-75
2023/01/02 06:58:22;;;;;;;2.20;1.30;;;9.40;99.90;;;;;;5050999;28;20317;-76
2023/01/02 07:00:49;;;;;;;4.15;1.08;;;9.30;99.90;;;;;;5050160;28;20335;-75
2023/01/02 07:03:15;;;;;;;2.10;1.00;;;9.30;99.90;;;;;;5045932;28;20033;-76
2023/01/02 07:05:41;;;;;;;3.35;1.45;;;9.30;99.90;;;;;;5044627;28;20025;-76
2023/01/02 07:08:07;;;;;;;1.60;1.17;;;9.30;99.90;;;;;;5046364;28;20439;-76
2023/01/02 07:10:33;;;;;;;4.53;1.30;;;9.20;99.90;;;;;;5046006;28;20029;-76
2023/01/02 07:12:59;;;;;;;1.20;1.10;;;9.20;99.90;;;;;;5050117;28;20103;-76
2023/01/02 07:15:24;;;;;;;1.10;0.80;;;9.20;99.90;;;;;;5040177;28;20029;-76
2023/01/02 07:17:50;;;;;;;3.27;0.73;;;9.20;99.90;;;;;;5044042;28;20057;-76
2023/01/02 07:20:16;;;;;;;3.53;0.67;;;9.20;99.90;;;;;;5051029;28;20032;-77
2023/01/02 07:22:41;;;;;;;1.47;0.83;;;9.10;99.90;;;;;;5047082;28;20029;-76
2023/01/02 07:25:07;;;;;;;1.02;0.85;;;9.10;99.90;;;;;;5050402;28;20026;-76
2023/01/02 07:27:33;;;;;;;2.65;1.00;;;9.10;99.90;;;;;;5048219;28;20040;-77
2023/01/02 07:29:59;;;;;;;4.47;1.10;;;9.10;99.90;;;;;;5047751;28;20087;-77
2023/01/02 07:32:25;;;;;;;6.30;1.27;;;9.10;99.90;;;;;;5045525;28;20025;-76
2023/01/02 07:34:51;;;;;;;4.23;1.20;;;9.10;99.90;;;;;;5049655;28;20025;-76
2023/01/02 07:37:17;;;;;;;2.83;1.43;;;9.00;99.90;;;;;;5044946;28;20060;-76
2023/01/02 07:39:42;;;;;;;5.53;1.33;;;9.10;99.90;;;;;;5045138;28;20313;-76
2023/01/02 07:42:08;;;;;;;3.23;1.43;;;9.00;99.90;;;;;;5034730;28;20037;-76
2023/01/02 07:44:34;;;;;;;4.78;1.63;;;9.00;99.90;;;;;;5039280;28;20064;-76
2023/01/02 07:47:00;;;;;;;2.37;1.40;;;9.00;99.90;;;;;;5047285;28;20026;-76
2023/01/02 07:49:26;;;;;;;4.75;2.00;;;9.00;99.90;;;;;;5045104;28;20021;-76
2023/01/02 07:51:52;;;;;;;2.63;1.40;;;9.00;99.90;;;;;;5045109;28;20049;-76
2023/01/02 07:54:17;;;;;;;11.00;2.10;;;9.00;99.90;;;;;;5046820;28;20036;-76
2023/01/02 07:56:43;;;;;;;7.73;2.13;;;8.90;99.90;;;;;;5042871;28;20043;-77
2023/01/02 07:59:09;;;;;;;9.93;2.97;;;8.90;99.90;;;;;;5051496;28;20413;-77
2023/01/02 08:01:34;;;;;;;5.53;2.23;;;9.00;99.90;;;;;;5044746;28;20025;-88
2023/01/02 08:04:00;;;;;;;12.13;3.10;;;9.00;99.90;;;;;;5049636;28;20028;-76
2023/01/02 08:06:25;;;;;;;12.50;2.13;;;8.90;99.90;;;;;;5047113;28;20021;-76
2023/01/02 08:08:51;;;;;;;4.15;1.60;;;8.90;99.90;;;;;;5051926;28;20052;-77
2023/01/02 08:11:19;;;;;;;1.53;1.07;;;8.90;99.90;;;;;;5043625;28;20112;-76
2023/01/02 08:13:45;;;;;;;5.38;1.35;;;8.90;99.90;;;;;;5042623;28;20104;-76
2023/01/02 08:16:13;;;;;;;9.67;1.50;;;8.90;99.90;;;;;;5040523;28;20037;-87
2023/01/02 08:18:39;;;;;;;6.38;1.58;;;8.90;99.90;;;;;;5072317;22;20354;-76
2023/01/02 08:21:05;;;;;;;5.07;1.20;;;8.90;99.90;;;;;;5060727;28;20016;-76
2023/01/02 08:23:31;;;;;;;5.22;1.17;;;8.90;99.90;;;;;;5065917;28;20385;-76
2023/01/02 08:26:02;;;;;;;5.68;1.80;;;8.90;99.90;;;;;;5059689;28;20059;-77
2023/01/02 08:28:28;;;;;;;4.95;1.40;;;8.90;99.90;;;;;;5062521;28;20036;-76
2023/01/02 08:30:54;;;;;;;14.02;2.08;;;8.90;99.90;;;;;;5039735;28;20726;-77
2023/01/02 08:33:20;;;;;;;4.50;1.83;;;8.80;99.90;;;;;;5053268;28;20033;-78
2023/01/02 08:35:45;;;;;;;8.13;2.17;;;8.80;99.90;;;;;;5055194;28;20115;-76
2023/01/02 08:38:11;;;;;;;8.10;2.40;;;8.80;99.90;;;;;;5036990;28;20029;-77
2023/01/02 08:40:37;;;;;;;8.60;2.03;;;8.80;99.90;;;;;;5048496;28;20404;-76
2023/01/02 08:43:03;;;;;;;5.60;2.67;;;8.90;99.90;;;;;;5052920;28;20119;-77
2023/01/02 08:45:29;;;;;;;4.27;2.00;;;8.80;99.90;;;;;;5053468;28;20297;-77
2023/01/02 08:47:54;;;;;;;4.67;1.83;;;8.80;99.90;;;;;;5039074;28;20032;-77
2023/01/02 08:50:20;;;;;;;5.27;1.70;;;8.80;99.90;;;;;;5054446;28;20040;-83
2023/01/02 08:52:46;;;;;;;6.97;1.90;;;8.90;99.90;;;;;;5040425;28;20033;-77
2023/01/02 08:55:12;;;;;;;6.07;1.53;;;8.90;99.90;;;;;;5032580;28;20288;-78
2023/01/02 08:57:38;;;;;;;8.73;1.63;;;8.90;99.90;;;;;;5035237;28;20070;-77
2023/01/02 09:00:04;;;;;;;5.67;1.77;;;8.90;99.90;;;;;;5053892;28;20086;-77
2023/01/02 09:02:29;;;;;;;4.43;1.80;;;8.90;99.90;;;;;;5045974;28;20497;-77
2023/01/02 09:04:55;;;;;;;6.67;1.70;;;8.90;99.90;;;;;;5051766;28;20061;-77
2023/01/02 09:07:21;;;;;;;6.13;1.52;;;8.90;99.90;;;;;;5026020;28;20043;-77
2023/01/02 09:09:46;;;;;;;11.63;2.00;;;8.90;99.90;;;;;;5054438;28;20059;-77
2023/01/02 09:12:12;;;;;;;9.87;1.70;;;8.90;99.90;;;;;;5051055;28;20323;-77
2023/01/02 09:14:38;;;;;;;10.80;1.30;;;8.90;99.90;;;;;;5055205;28;20028;-77
2023/01/02 09:17:03;;;;;;;2.33;0.80;;;8.90;99.90;;;;;;5046489;28;20048;-87
2023/01/02 09:19:29;;;;;;;7.43;1.03;;;9.00;99.90;;;;;;5059616;28;20036;-77
2023/01/02 09:21:55;;;;;;;8.57;1.30;;;9.10;99.90;;;;;;5061373;28;20033;-77
2023/01/02 09:24:21;;;;;;;5.00;1.37;;;9.10;99.90;;;;;;5058762;28;20368;-78
2023/01/02 09:26:46;;;;;;;10.47;1.60;;;9.10;99.90;;;;;;5040321;28;20025;-77
2023/01/02 09:29:13;;;;;;;8.67;1.50;;;9.00;99.90;;;;;;5058950;28;20070;-78
2023/01/02 09:31:40;;;;;;;9.07;1.08;;;9.10;99.90;;;;;;5063067;28;20044;-78
2023/01/02 09:34:06;;;;;;;10.90;1.25;;;9.10;99.90;;;;;;5059494;28;20025;-78
2023/01/02 09:36:32;;;;;;;5.15;1.30;;;9.00;99.90;;;;;;5056481;28;20033;-78
2023/01/02 09:39:00;;;;;;;10.47;1.30;;;9.00;99.90;;;;;;5060362;28;20043;-78
2023/01/02 09:41:39;;;;;;;6.05;1.00;;;9.00;99.90;;;;;;5044538;28;20128;-77
2023/01/02 09:44:27;;;;;;;6.00;0.57;;;8.90;99.90;;;;;;5051669;28;20439;-78
2023/01/02 09:47:07;;;;;;;4.35;0.80;;;8.90;99.90;;;;;;5042103;28;20025;-88
2023/01/02 09:50:10;;;;;;;6.70;1.30;;;8.90;99.90;;;;;;5054335;28;20084;-78
2023/01/02 09:52:39;;;;;;;1.67;0.68;;;8.80;99.90;;;;;;5050440;28;20059;-88
2023/01/02 09:55:16;;;;;;;3.72;1.05;;;8.80;99.90;;;;;;5035997;28;20091;-78
2023/01/02 09:57:55;;;;;;;4.13;0.70;;;8.80;99.90;;;;;;5036916;28;20115;-79
2023/01/02 10:00:25;;;;;;;7.45;1.60;;;8.80;99.90;;;;;;5053252;28;20017;-77
2023/01/02 10:02:59;;;;;;;3.08;2.03;;;8.80;99.90;;;;;;5049707;28;20036;-78
2023/01/02 10:05:36;;;;;;;6.53;1.40;;;8.80;99.90;;;;;;5027120;28;20430;-78
2023/01/02 10:08:14;;;;;;;4.47;1.27;;;8.80;99.90;;;;;;5045260;28;20064;-78
2023/01/02 10:10:42;;;;;;;11.73;1.30;;;8.80;99.90;;;;;;5052711;28;20040;-77
2023/01/02 10:13:14;;;;;;;5.82;1.23;;;8.80;99.90;;;;;;5031710;28;20036;-77
2023/01/02 10:15:47;;;;;;;6.50;0.85;;;8.80;99.90;;;;;;5055706;28;20032;-77
2023/01/02 10:18:23;;;;;;;9.65;1.33;;;8.90;99.90;;;;;;5057186;28;20045;-77
2023/01/02 10:21:04;;;;;;;13.67;2.10;;;8.90;99.90;;;;;;5023940;28;20095;-77
2023/01/02 10:23:36;;;;;;;4.22;1.30;;;8.90;99.90;;;;;;5049608;28;20025;-78
2023/01/02 10:26:11;;;;;;;7.18;1.48;;;9.00;99.90;;;;;;5033070;28;20021;-77
2023/01/02 10:28:51;;;;;;;8.88;1.20;;;9.00;99.90;;;;;;5052075;28;20370;-78
2023/01/02 10:31:28;;;;;;;6.68;1.50;;;9.00;99.90;;;;;;5048621;28;20033;-76
2023/01/02 10:33:59;;;;;;;11.65;1.33;;;9.10;99.90;;;;;;5059914;28;20033;-79
2023/01/02 10:36:31;;;;;;;9.48;1.92;;;9.10;99.90;;;;;;5037764;28;20025;-78
2023/01/02 10:38:59;;;;;;;14.93;2.38;;;9.20;99.90;;;;;;5053210;28;20043;-78
2023/01/02 10:41:27;;;;;;;9.02;1.58;;;9.20;99.90;;;;;;5050618;28;20021;-89
2023/01/02 10:43:57;;;;;;;5.78;1.23;;;9.30;99.90;;;;;;5049544;28;20021;-78
2023/01/02 10:46:27;;;;;;;10.25;2.08;;;9.30;99.90;;;;;;5033016;28;20036;-77
2023/01/02 10:48:52;;;;;;;9.25;2.05;;;9.40;99.90;;;;;;5038287;28;20049;-87
2023/01/02 10:51:18;;;;;;;5.93;1.53;;;9.40;99.90;;;;;;5059758;28;20053;-77
2023/01/02 10:54:07;;;;;;;6.53;1.20;;;9.40;99.90;;;;;;5046944;28;20025;-78
2023/01/02 10:56:38;;;;;;;6.70;1.80;;;9.40;99.90;;;;;;5050081;28;20032;-77
2023/01/02 10:59:19;;;;;;;9.85;1.65;;;9.40;99.90;;;;;;5055405;28;20029;-78
2023/01/02 11:01:57;;;;;;;6.90;0.95;;;9.40;99.90;;;;;;5036918;28;20032;-77
2023/01/02 11:04:28;;;;;;;2.70;1.17;;;9.40;99.90;;;;;;5054612;28;20035;-78
2023/01/02 11:07:03;;;;;;;4.93;1.58;;;9.40;99.90;;;;;;5058802;28;20029;-78
2023/01/02 11:09:32;;;;;;;6.30;1.30;;;9.40;99.90;;;;;;5037847;28;20021;-77
2023/01/02 11:12:11;;;;;;;5.70;1.27;;;9.40;99.90;;;;;;5043646;28;20450;-78
2023/01/02 11:14:38;;;;;;;18.05;2.85;;;9.50;99.90;;;;;;5057905;28;20024;-77
2023/01/02 11:17:14;;;;;;;4.75;1.70;;;9.50;99.90;;;;;;5045721;28;20337;-77
2023/01/02 11:19:52;;;;;;;8.85;1.30;;;9.50;99.90;;;;;;5057844;28;20039;-77
2023/01/02 11:22:21;;;;;;;20.08;3.70;;;9.60;99.90;;;;;;5060612;28;20024;-76
2023/01/02 11:24:56;;;;;;;14.05;1.75;;;9.70;99.90;;;;;;5068615;28;20043;-77
2023/01/02 11:27:27;;;;;;;15.50;2.38;;;9.70;99.90;;;;;;5048855;28;20021;-78
2023/01/02 11:29:53;;;;;;;10.05;1.45;;;9.70;99.90;;;;;;5045595;28;20115;-77
2023/01/02 11:32:26;;;;;;;10.37;1.50;;;9.80;99.90;;;;;;5066882;28;20095;-77
2023/01/02 11:35:01;;;;;;;10.80;2.28;;;9.80;99.90;;;;;;5054482;28;20029;-77
2023/01/02 11:37:28;;;;;;;8.67;2.47;;;9.80;99.90;;;;;;5048795;28;20079;-78
2023/01/02 11:40:01;;;;;;;7.97;2.00;;;9.70;99.90;;;;;;5055953;28;20306;-77
2023/01/02 11:45:27;;;;;;;15.27;1.23;;;9.70;99.90;;;;;;5066652;28;20039;-88
2023/01/02 11:48:03;;;;;;;11.02;3.92;;;9.60;99.90;;;;;;5031134;28;20029;-90
2023/01/02 11:50:35;;;;;;;10.52;1.75;;;9.60;99.90;;;;;;5029223;28;20025;-77
2023/01/02 11:53:12;;;;;;;8.90;4.25;;;9.60;99.90;;;;;;5052564;28;20029;-78
2023/01/02 11:55:43;;;;;;;;;;;9.60;99.90;;;;;;5045559;28;20032;-77
2023/01/02 11:58:14;;;;;;;4.95;1.30;;;9.60;99.90;;;;;;5051654;28;19917;-77
2023/01/02 12:00:42;;;;;;;5.38;1.35;;;9.60;99.90;;;;;;5028824;28;20028;-77
2023/01/02 12:03:25;;;;;;;11.50;2.50;;;9.60;99.90;;;;;;5058951;28;20612;-78
2023/01/02 12:06:06;;;;;;;4.50;1.17;;;9.60;99.90;;;;;;5046805;28;20077;-78
2023/01/02 12:08:50;;;;;;;11.85;2.30;;;9.60;99.90;;;;;;5057083;28;20102;-77
2023/01/02 12:11:16;;;;;;;3.90;1.52;;;9.70;99.90;;;;;;5025046;28;20026;-78
2023/01/02 12:13:59;;;;;;;12.67;3.23;;;9.70;99.90;;;;;;5057501;28;20485;-77
2023/01/02 12:16:34;;;;;;;6.10;1.70;;;9.80;99.90;;;;;;5057347;28;20102;-78
2023/01/02 12:19:26;;;;;;;7.40;1.52;;;9.80;99.90;;;;;;5032255;28;20049;-77
2023/01/02 12:21:55;;;;;;;5.53;1.48;;;9.80;99.90;;;;;;5030199;28;20102;-78
2023/01/02 12:24:42;;;;;;;10.77;2.83;;;9.80;99.90;;;;;;5057216;28;20115;-77
2023/01/02 12:27:16;;;;;;;9.05;1.73;;;9.70;99.90;;;;;;5055309;28;20140;-89
2023/01/02 12:30:08;;;;;;;7.30;1.35;;;9.70;99.90;;;;;;5046303;28;20036;-78
2023/01/02 12:32:44;;;;;;;7.35;1.55;;;9.70;99.90;;;;;;5050183;28;20025;-77
2023/01/02 12:35:27;;;;;;;4.32;1.13;;;9.70;99.90;;;;;;5051489;28;20039;-79
2023/01/02 12:38:02;;;;;;;10.40;1.42;;;9.70;99.90;;;;;;5050434;28;20028;-89
2023/01/02 12:40:59;;;;;;;3.25;0.95;;;9.70;99.90;;;;;;5051727;28;20032;-77
2023/01/02 12:43:43;;;;;;;4.65;1.23;;;9.70;99.90;;;;;;5033307;28;20028;-78
2023/01/02 12:46:56;;;;;;;8.60;1.70;;;9.80;99.90;;;;;;5049950;28;20021;-77
2023/01/02 12:49:57;;;;;;;13.35;1.73;;;9.80;99.90;;;;;;5052479;28;20043;-77
2023/01/02 12:52:36;;;;;;;9.35;1.90;;;9.80;99.90;;;;;;5033267;28;20063;-77
2023/01/02 12:55:41;;;;;;;16.88;6.25;;;9.80;99.90;;;;;;5031922;28;20033;-77
2023/01/02 12:58:13;;;;;;;9.75;2.05;;;9.70;99.90;;;;;;5037785;28;20323;-88
2023/01/02 13:00:50;;;;;;;8.45;3.38;;;9.80;99.90;;;;;;5059104;28;20025;-77
2023/01/02 13:03:27;;;;;;;7.15;2.08;;;9.80;99.90;;;;;;5032049;28;20057;-78
2023/01/02 13:06:01;;;;;;;10.05;1.67;;;9.70;99.90;;;;;;5059755;28;20020;-77
2023/01/02 13:08:36;;;;;;;8.73;1.60;;;9.70;99.90;;;;;;5054121;28;20021;-78
2023/01/02 13:11:05;;;;;;;7.85;1.35;;;9.70;99.90;;;;;;5052525;28;20013;-77
2023/01/02 13:13:34;;;;;;;8.25;2.15;;;9.70;99.90;;;;;;5028224;28;20043;-77